sensor_id;sensor_type;location;lat;lon;timestamp;temperature;humidity
22112;DHT22;11222;50.872;4.312;2022-11-03T00:01:13;13.60;99.90
22112;DHT22;11222;50.872;4.312;2022-11-03T00:03:38;13.60;99.90
22112;DHT22;11222;50.872;4.312;2022-11-03T00:06:04;13.60;99.90
22112;DHT22;11222;50.872;4.312;2022-11-03T00:11:02;13.60;99.90
22112;DHT22;11222;50.872;4.312;2022-11-03T00:13:28;13.60;99.90
22112;DHT22;11222;50.872;4.312;2022-11-03T00:15:53;13.60;99.90
22112;DHT22;11222;50.872;4.312;2022-11-03T00:18:19;13.60;99.90
22112;DHT22;11222;50.872;4.312;2022-11-03T00:20:44;13.60;99.90
22112;DHT22;11222;50.872;4.312;2022-11-03T00:23:19;13.60;99.90
22112;DHT22;11222;50.872;4.312;2022-11-03T00:25:44;13.50;99.90
22112;DHT22;11222;50.872;4.312;2022-11-03T00:28:10;13.50;99.90
22112;DHT22;11222;50.872;4.312;2022-11-03T00:30:36;13.50;99.90
22112;DHT22;11222;50.872;4.312;2022-11-03T00:33:03;13.60;99.90
22112;DHT22;11222;50.872;4.312;2022-11-03T00:35:29;13.60;99.90
22112;DHT22;11222;50.872;4.312;2022-11-03T00:37:54;13.60;99.90
22112;DHT22;11222;50.872;4.312;2022-11-03T00:40:20;13.60;99.90
22112;DHT22;11222;50.872;4.312;2022-11-03T00:42:46;13.50;99.90
22112;DHT22;11222;50.872;4.312;2022-11-03T00:45:11;13.50;99.90
22112;DHT22;11222;50.872;4.312;2022-11-03T00:47:37;13.50;99.90
22112;DHT22;11222;50.872;4.312;2022-11-03T00:50:23;13.60;99.90
22112;DHT22;11222;50.872;4.312;2022-11-03T00:52:48;13.50;99.90
22112;DHT22;11222;50.872;4.312;2022-11-03T00:55:14;13.60;99.90
22112;DHT22;11222;50.872;4.312;2022-11-03T00:57:39;13.50;99.90
22112;DHT22;11222;50.872;4.312;2022-11-03T01:00:06;13.50;99.90
22112;DHT22;11222;50.872;4.312;2022-11-03T01:02:31;13.50;99.90
22112;DHT22;11222;50.872;4.312;2022-11-03T01:04:57;13.50;99.90
22112;DHT22;11222;50.872;4.312;2022-11-03T01:07:41;13.50;99.90
22112;DHT22;11222;50.872;4.312;2022-11-03T01:10:07;13.50;99.90
22112;DHT22;11222;50.872;4.312;2022-11-03T01:12:34;13.50;99.90
22112;DHT22;11222;50.872;4.312;2022-11-03T01:14:59;13.50;99.90
22112;DHT22;11222;50.872;4.312;2022-11-03T01:17:26;13.50;99.90
22112;DHT22;11222;50.872;4.312;2022-11-03T01:19:53;13.50;99.90
22112;DHT22;11222;50.872;4.312;2022-11-03T01:22:20;13.50;99.90
22112;DHT22;11222;50.872;4.312;2022-11-03T01:24:47;13.50;99.90
22112;DHT22;11222;50.872;4.312;2022-11-03T01:27:15;13.60;99.90
22112;DHT22;11222;50.872;4.312;2022-11-03T01:29:41;13.60;99.90
22112;DHT22;11222;50.872;4.312;2022-11-03T01:32:08;13.50;99.90
22112;DHT22;11222;50.872;4.312;2022-11-03T01:34:34;13.50;99.90
22112;DHT22;11222;50.872;4.312;2022-11-03T01:36:59;13.40;99.90
22112;DHT22;11222;50.872;4.312;2022-11-03T01:39:25;13.40;99.90
22112;DHT22;11222;50.872;4.312;2022-11-03T01:41:51;13.40;99.90
22112;DHT22;11222;50.872;4.312;2022-11-03T01:46:53;13.50;99.90
22112;DHT22;11222;50.872;4.312;2022-11-03T01:52:11;13.50;99.90
22112;DHT22;11222;50.872;4.312;2022-11-03T01:54:41;13.40;99.90
22112;DHT22;11222;50.872;4.312;2022-11-03T01:57:12;13.40;99.90
22112;DHT22;11222;50.872;4.312;2022-11-03T01:59:40;13.40;99.90
22112;DHT22;11222;50.872;4.312;2022-11-03T02:02:06;13.40;99.90
22112;DHT22;11222;50.872;4.312;2022-11-03T02:04:33;13.40;99.90
22112;DHT22;11222;50.872;4.312;2022-11-03T02:07:30;13.40;99.90
22112;DHT22;11222;50.872;4.312;2022-11-03T02:09:57;13.40;99.90
22112;DHT22;11222;50.872;4.312;2022-11-03T02:12:23;13.30;99.90
22112;DHT22;11222;50.872;4.312;2022-11-03T02:14:56;13.30;99.90
22112;DHT22;11222;50.872;4.312;2022-11-03T02:17:25;13.30;99.90
22112;DHT22;11222;50.872;4.312;2022-11-03T02:25:39;13.40;99.90
22112;DHT22;11222;50.872;4.312;2022-11-03T02:28:05;13.40;99.90
22112;DHT22;11222;50.872;4.312;2022-11-03T02:31:27;13.50;99.90
22112;DHT22;11222;50.872;4.312;2022-11-03T02:36:42;13.50;99.90
22112;DHT22;11222;50.872;4.312;2022-11-03T02:39:17;13.50;99.90
22112;DHT22;11222;50.872;4.312;2022-11-03T02:41:45;13.50;99.90
22112;DHT22;11222;50.872;4.312;2022-11-03T02:44:16;13.40;99.90
22112;DHT22;11222;50.872;4.312;2022-11-03T02:46:44;13.40;99.90
22112;DHT22;11222;50.872;4.312;2022-11-03T02:49:10;13.50;99.90
22112;DHT22;11222;50.872;4.312;2022-11-03T02:51:36;13.50;99.90
22112;DHT22;11222;50.872;4.312;2022-11-03T02:54:19;13.50;99.90
22112;DHT22;11222;50.872;4.312;2022-11-03T02:56:50;13.50;99.90
22112;DHT22;11222;50.872;4.312;2022-11-03T02:59:22;13.50;99.90
22112;DHT22;11222;50.872;4.312;2022-11-03T03:01:54;13.50;99.90
22112;DHT22;11222;50.872;4.312;2022-11-03T03:04:38;13.50;99.90
22112;DHT22;11222;50.872;4.312;2022-11-03T03:07:11;13.50;99.90
22112;DHT22;11222;50.872;4.312;2022-11-03T03:09:59;13.50;99.90
22112;DHT22;11222;50.872;4.312;2022-11-03T03:12:26;13.50;99.90
22112;DHT22;11222;50.872;4.312;2022-11-03T03:14:53;13.50;99.90
22112;DHT22;11222;50.872;4.312;2022-11-03T03:22:41;13.60;99.90
22112;DHT22;11222;50.872;4.312;2022-11-03T03:25:22;13.60;99.90
22112;DHT22;11222;50.872;4.312;2022-11-03T03:27:52;13.60;99.90
22112;DHT22;11222;50.872;4.312;2022-11-03T03:30:19;13.60;99.90
22112;DHT22;11222;50.872;4.312;2022-11-03T03:32:47;13.60;99.90
22112;DHT22;11222;50.872;4.312;2022-11-03T03:35:19;13.60;99.90
22112;DHT22;11222;50.872;4.312;2022-11-03T03:37:47;13.60;99.90
22112;DHT22;11222;50.872;4.312;2022-11-03T03:40:26;13.60;99.90
22112;DHT22;11222;50.872;4.312;2022-11-03T03:42:53;13.60;99.90
22112;DHT22;11222;50.872;4.312;2022-11-03T03:45:19;13.70;99.90
22112;DHT22;11222;50.872;4.312;2022-11-03T03:47:45;13.60;99.90
22112;DHT22;11222;50.872;4.312;2022-11-03T03:50:12;13.60;99.90
22112;DHT22;11222;50.872;4.312;2022-11-03T03:52:38;13.70;99.90
22112;DHT22;11222;50.872;4.312;2022-11-03T03:55:07;13.70;99.90
22112;DHT22;11222;50.872;4.312;2022-11-03T03:57:36;13.70;99.90
22112;DHT22;11222;50.872;4.312;2022-11-03T04:00:03;13.70;99.90
22112;DHT22;11222;50.872;4.312;2022-11-03T04:02:28;13.70;99.90
22112;DHT22;11222;50.872;4.312;2022-11-03T04:04:54;13.70;99.90
22112;DHT22;11222;50.872;4.312;2022-11-03T04:07:19;13.70;99.90
22112;DHT22;11222;50.872;4.312;2022-11-03T04:10:04;13.70;99.90
22112;DHT22;11222;50.872;4.312;2022-11-03T04:12:30;13.70;99.90
22112;DHT22;11222;50.872;4.312;2022-11-03T04:15:14;13.70;99.90
22112;DHT22;11222;50.872;4.312;2022-11-03T04:17:58;13.70;99.90
22112;DHT22;11222;50.872;4.312;2022-11-03T04:20:42;13.70;99.90
22112;DHT22;11222;50.872;4.312;2022-11-03T04:23:25;13.70;99.90
22112;DHT22;11222;50.872;4.312;2022-11-03T04:25:53;13.70;99.90
22112;DHT22;11222;50.872;4.312;2022-11-03T04:28:20;13.80;99.90
22112;DHT22;11222;50.872;4.312;2022-11-03T04:30:46;13.90;99.90
22112;DHT22;11222;50.872;4.312;2022-11-03T04:33:17;13.80;99.90
22112;DHT22;11222;50.872;4.312;2022-11-03T04:35:44;13.80;99.90
22112;DHT22;11222;50.872;4.312;2022-11-03T04:40:42;13.90;99.90
22112;DHT22;11222;50.872;4.312;2022-11-03T04:43:12;14.00;99.90
22112;DHT22;11222;50.872;4.312;2022-11-03T04:45:39;13.90;99.90
22112;DHT22;11222;50.872;4.312;2022-11-03T04:48:14;13.90;99.90
22112;DHT22;11222;50.872;4.312;2022-11-03T04:50:40;13.90;99.90
22112;DHT22;11222;50.872;4.312;2022-11-03T04:53:13;13.90;99.90
22112;DHT22;11222;50.872;4.312;2022-11-03T04:55:40;14.00;99.90
22112;DHT22;11222;50.872;4.312;2022-11-03T04:58:18;14.00;99.90
22112;DHT22;11222;50.872;4.312;2022-11-03T05:00:45;14.00;99.90
22112;DHT22;11222;50.872;4.312;2022-11-03T05:03:17;14.00;99.90
22112;DHT22;11222;50.872;4.312;2022-11-03T05:05:44;14.00;99.90
22112;DHT22;11222;50.872;4.312;2022-11-03T05:08:10;14.00;99.90
22112;DHT22;11222;50.872;4.312;2022-11-03T05:10:37;14.00;99.90
22112;DHT22;11222;50.872;4.312;2022-11-03T05:13:02;13.90;99.90
22112;DHT22;11222;50.872;4.312;2022-11-03T05:15:36;13.90;99.90
22112;DHT22;11222;50.872;4.312;2022-11-03T05:18:26;13.90;99.90
22112;DHT22;11222;50.872;4.312;2022-11-03T05:20:59;13.90;99.90
22112;DHT22;11222;50.872;4.312;2022-11-03T05:23:27;13.90;99.90
22112;DHT22;11222;50.872;4.312;2022-11-03T05:25:56;13.90;99.90
22112;DHT22;11222;50.872;4.312;2022-11-03T05:28:29;13.90;99.90
22112;DHT22;11222;50.872;4.312;2022-11-03T05:30:56;13.90;99.90
22112;DHT22;11222;50.872;4.312;2022-11-03T05:33:28;13.90;99.90
22112;DHT22;11222;50.872;4.312;2022-11-03T05:35:57;13.90;99.90
22112;DHT22;11222;50.872;4.312;2022-11-03T05:38:29;13.80;99.90
22112;DHT22;11222;50.872;4.312;2022-11-03T05:40:56;13.80;99.90
22112;DHT22;11222;50.872;4.312;2022-11-03T05:43:22;13.80;99.90
22112;DHT22;11222;50.872;4.312;2022-11-03T05:45:49;13.80;99.90
22112;DHT22;11222;50.872;4.312;2022-11-03T05:48:34;13.80;99.90
22112;DHT22;11222;50.872;4.312;2022-11-03T05:51:02;13.70;99.90
22112;DHT22;11222;50.872;4.312;2022-11-03T05:53:39;13.70;99.90
22112;DHT22;11222;50.872;4.312;2022-11-03T05:56:15;13.70;99.90
22112;DHT22;11222;50.872;4.312;2022-11-03T05:58:43;13.60;99.90
22112;DHT22;11222;50.872;4.312;2022-11-03T06:03:40;13.50;99.90
22112;DHT22;11222;50.872;4.312;2022-11-03T06:06:21;13.60;99.90
22112;DHT22;11222;50.872;4.312;2022-11-03T06:08:49;13.60;99.90
22112;DHT22;11222;50.872;4.312;2022-11-03T06:11:31;13.50;99.90
22112;DHT22;11222;50.872;4.312;2022-11-03T06:13:58;13.60;99.90
22112;DHT22;11222;50.872;4.312;2022-11-03T06:16:41;13.50;99.90
22112;DHT22;11222;50.872;4.312;2022-11-03T06:19:19;13.60;99.90
22112;DHT22;11222;50.872;4.312;2022-11-03T06:21:47;13.50;99.90
22112;DHT22;11222;50.872;4.312;2022-11-03T06:24:14;13.50;99.90
22112;DHT22;11222;50.872;4.312;2022-11-03T06:26:44;13.50;99.90
22112;DHT22;11222;50.872;4.312;2022-11-03T06:29:15;13.60;99.90
22112;DHT22;11222;50.872;4.312;2022-11-03T06:31:42;13.50;99.90
22112;DHT22;11222;50.872;4.312;2022-11-03T06:36:58;13.60;99.90
22112;DHT22;11222;50.872;4.312;2022-11-03T06:39:26;13.50;99.90
22112;DHT22;11222;50.872;4.312;2022-11-03T06:41:52;13.60;99.90
22112;DHT22;11222;50.872;4.312;2022-11-03T06:44:28;13.50;99.90
22112;DHT22;11222;50.872;4.312;2022-11-03T06:47:00;13.60;99.90
22112;DHT22;11222;50.872;4.312;2022-11-03T06:49:31;13.60;99.90
22112;DHT22;11222;50.872;4.312;2022-11-03T06:52:21;13.70;99.90
22112;DHT22;11222;50.872;4.312;2022-11-03T06:54:49;13.70;99.90
22112;DHT22;11222;50.872;4.312;2022-11-03T06:57:18;13.70;99.90
22112;DHT22;11222;50.872;4.312;2022-11-03T06:59:44;13.70;99.90
22112;DHT22;11222;50.872;4.312;2022-11-03T07:05:26;13.80;99.90
22112;DHT22;11222;50.872;4.312;2022-11-03T07:07:55;13.70;99.90
22112;DHT22;11222;50.872;4.312;2022-11-03T07:10:24;13.60;99.90
22112;DHT22;11222;50.872;4.312;2022-11-03T07:12:51;13.70;99.90
22112;DHT22;11222;50.872;4.312;2022-11-03T07:15:27;13.70;99.90
22112;DHT22;11222;50.872;4.312;2022-11-03T07:17:55;13.70;99.90
22112;DHT22;11222;50.872;4.312;2022-11-03T07:20:21;13.70;99.90
22112;DHT22;11222;50.872;4.312;2022-11-03T07:22:48;13.70;99.90
22112;DHT22;11222;50.872;4.312;2022-11-03T07:25:19;13.80;99.90
22112;DHT22;11222;50.872;4.312;2022-11-03T07:27:49;13.80;99.90
22112;DHT22;11222;50.872;4.312;2022-11-03T07:30:23;13.90;99.90
22112;DHT22;11222;50.872;4.312;2022-11-03T07:32:51;13.70;99.90
22112;DHT22;11222;50.872;4.312;2022-11-03T07:37:48;13.80;99.90
22112;DHT22;11222;50.872;4.312;2022-11-03T07:40:18;13.90;99.90
22112;DHT22;11222;50.872;4.312;2022-11-03T07:42:45;13.90;99.90
22112;DHT22;11222;50.872;4.312;2022-11-03T07:47:56;13.90;99.90
22112;DHT22;11222;50.872;4.312;2022-11-03T07:50:21;13.90;99.90
22112;DHT22;11222;50.872;4.312;2022-11-03T07:52:47;13.70;99.90
22112;DHT22;11222;50.872;4.312;2022-11-03T07:55:13;13.60;99.90
22112;DHT22;11222;50.872;4.312;2022-11-03T07:57:39;13.70;99.90
22112;DHT22;11222;50.872;4.312;2022-11-03T08:00:09;13.70;99.90
22112;DHT22;11222;50.872;4.312;2022-11-03T08:02:46;13.80;99.90
22112;DHT22;11222;50.872;4.312;2022-11-03T08:05:12;13.80;99.90
22112;DHT22;11222;50.872;4.312;2022-11-03T08:07:38;13.60;99.90
22112;DHT22;11222;50.872;4.312;2022-11-03T08:10:04;13.60;99.90
22112;DHT22;11222;50.872;4.312;2022-11-03T08:12:31;13.60;99.90
22112;DHT22;11222;50.872;4.312;2022-11-03T08:14:57;13.70;99.90
22112;DHT22;11222;50.872;4.312;2022-11-03T08:17:23;13.80;99.90
22112;DHT22;11222;50.872;4.312;2022-11-03T08:19:48;13.70;99.90
22112;DHT22;11222;50.872;4.312;2022-11-03T08:22:14;13.80;99.90
22112;DHT22;11222;50.872;4.312;2022-11-03T08:24:40;13.80;99.90
22112;DHT22;11222;50.872;4.312;2022-11-03T08:27:05;13.80;99.90
22112;DHT22;11222;50.872;4.312;2022-11-03T08:29:33;13.70;99.90
22112;DHT22;11222;50.872;4.312;2022-11-03T08:32:00;13.60;99.90
22112;DHT22;11222;50.872;4.312;2022-11-03T08:34:25;13.60;99.90
22112;DHT22;11222;50.872;4.312;2022-11-03T08:36:51;13.60;99.90
22112;DHT22;11222;50.872;4.312;2022-11-03T08:39:24;13.50;99.90
22112;DHT22;11222;50.872;4.312;2022-11-03T08:41:50;13.60;99.90
22112;DHT22;11222;50.872;4.312;2022-11-03T08:44:15;13.60;99.90
22112;DHT22;11222;50.872;4.312;2022-11-03T08:46:41;13.60;99.90
22112;DHT22;11222;50.872;4.312;2022-11-03T08:49:08;13.60;99.90
22112;DHT22;11222;50.872;4.312;2022-11-03T08:51:33;13.60;99.90
22112;DHT22;11222;50.872;4.312;2022-11-03T08:53:59;13.50;99.90
22112;DHT22;11222;50.872;4.312;2022-11-03T08:56:25;13.50;99.90
22112;DHT22;11222;50.872;4.312;2022-11-03T08:58:50;13.60;99.90
22112;DHT22;11222;50.872;4.312;2022-11-03T09:01:16;13.70;99.90
22112;DHT22;11222;50.872;4.312;2022-11-03T09:03:43;13.70;99.90
22112;DHT22;11222;50.872;4.312;2022-11-03T09:06:09;13.70;99.90
22112;DHT22;11222;50.872;4.312;2022-11-03T09:08:35;13.80;99.90
22112;DHT22;11222;50.872;4.312;2022-11-03T09:11:00;13.90;99.90
22112;DHT22;11222;50.872;4.312;2022-11-03T09:13:26;13.80;99.90
22112;DHT22;11222;50.872;4.312;2022-11-03T09:15:51;13.70;99.90
22112;DHT22;11222;50.872;4.312;2022-11-03T09:18:18;13.80;99.90
22112;DHT22;11222;50.872;4.312;2022-11-03T09:20:43;13.90;99.90
22112;DHT22;11222;50.872;4.312;2022-11-03T09:23:09;14.10;99.90
22112;DHT22;11222;50.872;4.312;2022-11-03T09:25:35;14.30;99.90
22112;DHT22;11222;50.872;4.312;2022-11-03T09:28:01;14.30;99.90
22112;DHT22;11222;50.872;4.312;2022-11-03T09:30:27;14.40;99.90
22112;DHT22;11222;50.872;4.312;2022-11-03T09:32:53;14.50;99.90
22112;DHT22;11222;50.872;4.312;2022-11-03T09:35:19;14.50;99.90
22112;DHT22;11222;50.872;4.312;2022-11-03T09:37:44;14.60;99.90
22112;DHT22;11222;50.872;4.312;2022-11-03T09:40:13;14.80;99.90
22112;DHT22;11222;50.872;4.312;2022-11-03T09:42:39;15.00;99.90
22112;DHT22;11222;50.872;4.312;2022-11-03T09:45:08;15.20;99.90
22112;DHT22;11222;50.872;4.312;2022-11-03T09:47:39;15.50;99.90
22112;DHT22;11222;50.872;4.312;2022-11-03T09:50:14;15.50;99.90
22112;DHT22;11222;50.872;4.312;2022-11-03T09:52:40;15.30;99.90
22112;DHT22;11222;50.872;4.312;2022-11-03T09:55:15;15.20;99.90
22112;DHT22;11222;50.872;4.312;2022-11-03T09:57:42;15.30;99.90
22112;DHT22;11222;50.872;4.312;2022-11-03T10:00:15;15.60;99.90
22112;DHT22;11222;50.872;4.312;2022-11-03T10:02:42;15.60;99.90
22112;DHT22;11222;50.872;4.312;2022-11-03T10:05:32;15.70;99.90
22112;DHT22;11222;50.872;4.312;2022-11-03T10:08:01;15.60;99.90
22112;DHT22;11222;50.872;4.312;2022-11-03T10:10:28;15.50;99.90
22112;DHT22;11222;50.872;4.312;2022-11-03T10:12:54;15.50;99.90
22112;DHT22;11222;50.872;4.312;2022-11-03T10:15:22;15.50;99.90
22112;DHT22;11222;50.872;4.312;2022-11-03T10:17:48;15.50;99.90
22112;DHT22;11222;50.872;4.312;2022-11-03T10:20:20;15.50;99.90
22112;DHT22;11222;50.872;4.312;2022-11-03T10:22:46;15.40;99.90
22112;DHT22;11222;50.872;4.312;2022-11-03T10:25:35;15.40;99.90
22112;DHT22;11222;50.872;4.312;2022-11-03T10:36:00;15.40;99.90
22112;DHT22;11222;50.872;4.312;2022-11-03T10:38:27;15.70;99.90
22112;DHT22;11222;50.872;4.312;2022-11-03T10:40:56;15.70;99.90
22112;DHT22;11222;50.872;4.312;2022-11-03T10:43:33;15.60;99.90
22112;DHT22;11222;50.872;4.312;2022-11-03T10:46:17;15.60;99.90
22112;DHT22;11222;50.872;4.312;2022-11-03T10:48:44;15.80;99.90
22112;DHT22;11222;50.872;4.312;2022-11-03T10:51:11;15.90;99.90
22112;DHT22;11222;50.872;4.312;2022-11-03T10:53:39;16.00;99.90
22112;DHT22;11222;50.872;4.312;2022-11-03T10:56:06;16.20;99.90
22112;DHT22;11222;50.872;4.312;2022-11-03T10:58:33;16.30;99.90
22112;DHT22;11222;50.872;4.312;2022-11-03T11:00:59;16.40;99.90
22112;DHT22;11222;50.872;4.312;2022-11-03T11:03:25;16.30;99.90
22112;DHT22;11222;50.872;4.312;2022-11-03T11:05:50;16.40;99.90
22112;DHT22;11222;50.872;4.312;2022-11-03T11:08:21;16.40;99.90
22112;DHT22;11222;50.872;4.312;2022-11-03T11:10:48;16.50;99.90
22112;DHT22;11222;50.872;4.312;2022-11-03T11:15:45;16.70;99.90
22112;DHT22;11222;50.872;4.312;2022-11-03T11:23:45;16.20;99.90
22112;DHT22;11222;50.872;4.312;2022-11-03T11:26:31;16.20;99.90
22112;DHT22;11222;50.872;4.312;2022-11-03T11:31:42;16.30;99.90
22112;DHT22;11222;50.872;4.312;2022-11-03T11:36:38;16.40;99.90
22112;DHT22;11222;50.872;4.312;2022-11-03T11:42:17;17.10;99.90
22112;DHT22;11222;50.872;4.312;2022-11-03T11:49:47;18.10;99.90
22112;DHT22;11222;50.872;4.312;2022-11-03T11:52:13;17.50;99.90
22112;DHT22;11222;50.872;4.312;2022-11-03T11:54:40;17.10;99.90
22112;DHT22;11222;50.872;4.312;2022-11-03T11:57:18;16.90;99.90
22112;DHT22;11222;50.872;4.312;2022-11-03T11:59:45;16.90;99.90
22112;DHT22;11222;50.872;4.312;2022-11-03T12:02:21;16.70;99.90
22112;DHT22;11222;50.872;4.312;2022-11-03T12:04:51;16.70;99.90
22112;DHT22;11222;50.872;4.312;2022-11-03T12:07:34;16.80;99.90
22112;DHT22;11222;50.872;4.312;2022-11-03T12:10:18;16.80;99.90
22112;DHT22;11222;50.872;4.312;2022-11-03T12:12:45;16.90;99.90
22112;DHT22;11222;50.872;4.312;2022-11-03T12:21:06;17.00;99.90
22112;DHT22;11222;50.872;4.312;2022-11-03T12:23:42;16.90;99.90
22112;DHT22;11222;50.872;4.312;2022-11-03T12:26:39;16.80;99.90
22112;DHT22;11222;50.872;4.312;2022-11-03T12:29:07;16.70;99.90
22112;DHT22;11222;50.872;4.312;2022-11-03T12:31:32;16.50;99.90
22112;DHT22;11222;50.872;4.312;2022-11-03T12:33:58;16.30;99.90
22112;DHT22;11222;50.872;4.312;2022-11-03T12:36:24;16.30;99.90
22112;DHT22;11222;50.872;4.312;2022-11-03T12:38:49;16.30;99.90
22112;DHT22;11222;50.872;4.312;2022-11-03T12:41:15;16.20;99.90
22112;DHT22;11222;50.872;4.312;2022-11-03T12:43:51;16.20;99.90
22112;DHT22;11222;50.872;4.312;2022-11-03T12:46:18;16.20;99.90
22112;DHT22;11222;50.872;4.312;2022-11-03T12:48:45;16.10;99.90
22112;DHT22;11222;50.872;4.312;2022-11-03T12:53:39;16.00;99.90
22112;DHT22;11222;50.872;4.312;2022-11-03T12:56:06;15.90;99.90
22112;DHT22;11222;50.872;4.312;2022-11-03T12:58:32;15.70;99.90
22112;DHT22;11222;50.872;4.312;2022-11-03T13:00:58;15.50;99.90
22112;DHT22;11222;50.872;4.312;2022-11-03T13:03:23;15.40;99.90
22112;DHT22;11222;50.872;4.312;2022-11-03T13:05:49;15.30;99.90
22112;DHT22;11222;50.872;4.312;2022-11-03T13:08:15;15.20;99.90
22112;DHT22;11222;50.872;4.312;2022-11-03T13:10:40;15.20;99.90
22112;DHT22;11222;50.872;4.312;2022-11-03T13:13:06;15.20;99.90
22112;DHT22;11222;50.872;4.312;2022-11-03T13:15:32;15.10;99.90
22112;DHT22;11222;50.872;4.312;2022-11-03T13:17:57;15.10;99.90
22112;DHT22;11222;50.872;4.312;2022-11-03T13:20:23;15.20;99.90
22112;DHT22;11222;50.872;4.312;2022-11-03T13:22:49;15.20;99.90
22112;DHT22;11222;50.872;4.312;2022-11-03T13:25:15;15.30;99.90
22112;DHT22;11222;50.872;4.312;2022-11-03T13:27:41;15.20;99.90
22112;DHT22;11222;50.872;4.312;2022-11-03T13:30:07;15.20;99.90
22112;DHT22;11222;50.872;4.312;2022-11-03T13:32:33;15.10;99.90
22112;DHT22;11222;50.872;4.312;2022-11-03T13:34:59;15.10;99.90
22112;DHT22;11222;50.872;4.312;2022-11-03T13:37:25;15.10;99.90
22112;DHT22;11222;50.872;4.312;2022-11-03T13:39:50;14.90;99.90
22112;DHT22;11222;50.872;4.312;2022-11-03T13:42:16;14.90;99.90
22112;DHT22;11222;50.872;4.312;2022-11-03T13:44:42;14.90;99.90
22112;DHT22;11222;50.872;4.312;2022-11-03T13:47:07;15.00;99.90
22112;DHT22;11222;50.872;4.312;2022-11-03T13:49:33;15.10;99.90
22112;DHT22;11222;50.872;4.312;2022-11-03T13:51:58;15.10;99.90
22112;DHT22;11222;50.872;4.312;2022-11-03T13:54:24;14.90;99.90
22112;DHT22;11222;50.872;4.312;2022-11-03T13:56:50;15.00;99.90
22112;DHT22;11222;50.872;4.312;2022-11-03T13:59:15;15.00;99.90
22112;DHT22;11222;50.872;4.312;2022-11-03T14:01:41;14.90;99.90
22112;DHT22;11222;50.872;4.312;2022-11-03T14:04:07;15.00;99.90
22112;DHT22;11222;50.872;4.312;2022-11-03T14:06:33;14.90;99.90
22112;DHT22;11222;50.872;4.312;2022-11-03T14:08:58;15.10;99.90
22112;DHT22;11222;50.872;4.312;2022-11-03T14:11:24;15.00;99.90
22112;DHT22;11222;50.872;4.312;2022-11-03T14:14:08;14.90;99.90
22112;DHT22;11222;50.872;4.312;2022-11-03T14:16:34;14.80;99.90
22112;DHT22;11222;50.872;4.312;2022-11-03T14:19:00;14.80;99.90
22112;DHT22;11222;50.872;4.312;2022-11-03T14:21:25;14.80;99.90
22112;DHT22;11222;50.872;4.312;2022-11-03T14:23:51;14.80;99.90
22112;DHT22;11222;50.872;4.312;2022-11-03T14:26:17;14.90;99.90
22112;DHT22;11222;50.872;4.312;2022-11-03T14:28:42;14.90;99.90
22112;DHT22;11222;50.872;4.312;2022-11-03T14:31:08;14.90;99.90
22112;DHT22;11222;50.872;4.312;2022-11-03T14:33:34;14.80;99.90
22112;DHT22;11222;50.872;4.312;2022-11-03T14:35:59;14.60;99.90
22112;DHT22;11222;50.872;4.312;2022-11-03T14:38:25;14.50;99.90
22112;DHT22;11222;50.872;4.312;2022-11-03T14:40:51;14.60;99.90
22112;DHT22;11222;50.872;4.312;2022-11-03T14:43:35;14.60;99.90
22112;DHT22;11222;50.872;4.312;2022-11-03T14:46:01;14.70;99.90
22112;DHT22;11222;50.872;4.312;2022-11-03T14:48:26;14.70;99.90
22112;DHT22;11222;50.872;4.312;2022-11-03T14:50:54;14.60;99.90
22112;DHT22;11222;50.872;4.312;2022-11-03T14:53:19;14.50;99.90
22112;DHT22;11222;50.872;4.312;2022-11-03T14:55:45;14.40;99.90
22112;DHT22;11222;50.872;4.312;2022-11-03T14:58:10;14.40;99.90
22112;DHT22;11222;50.872;4.312;2022-11-03T15:00:36;14.20;99.90
22112;DHT22;11222;50.872;4.312;2022-11-03T15:03:02;14.30;99.90
22112;DHT22;11222;50.872;4.312;2022-11-03T15:05:27;14.40;99.90
22112;DHT22;11222;50.872;4.312;2022-11-03T15:08:09;14.40;99.90
22112;DHT22;11222;50.872;4.312;2022-11-03T15:10:34;14.30;99.90
22112;DHT22;11222;50.872;4.312;2022-11-03T15:13:00;14.10;99.90
22112;DHT22;11222;50.872;4.312;2022-11-03T15:15:25;14.10;99.90
22112;DHT22;11222;50.872;4.312;2022-11-03T15:17:51;14.10;99.90
22112;DHT22;11222;50.872;4.312;2022-11-03T15:20:17;14.00;99.90
22112;DHT22;11222;50.872;4.312;2022-11-03T15:22:42;13.90;99.90
22112;DHT22;11222;50.872;4.312;2022-11-03T15:25:08;13.80;99.90
22112;DHT22;11222;50.872;4.312;2022-11-03T15:27:34;13.70;99.90
22112;DHT22;11222;50.872;4.312;2022-11-03T15:29:59;13.70;99.90
22112;DHT22;11222;50.872;4.312;2022-11-03T15:32:25;13.70;99.90
22112;DHT22;11222;50.872;4.312;2022-11-03T15:34:51;13.60;99.90
22112;DHT22;11222;50.872;4.312;2022-11-03T15:37:17;13.70;99.90
22112;DHT22;11222;50.872;4.312;2022-11-03T15:39:42;13.60;99.90
22112;DHT22;11222;50.872;4.312;2022-11-03T15:42:08;13.60;99.90
22112;DHT22;11222;50.872;4.312;2022-11-03T15:44:34;13.60;99.90
22112;DHT22;11222;50.872;4.312;2022-11-03T15:46:59;13.50;99.90
22112;DHT22;11222;50.872;4.312;2022-11-03T15:49:25;13.60;99.90
22112;DHT22;11222;50.872;4.312;2022-11-03T15:51:51;13.60;99.90
22112;DHT22;11222;50.872;4.312;2022-11-03T15:54:16;13.60;99.90
22112;DHT22;11222;50.872;4.312;2022-11-03T15:56:42;13.50;99.90
22112;DHT22;11222;50.872;4.312;2022-11-03T15:59:08;13.50;99.90
22112;DHT22;11222;50.872;4.312;2022-11-03T16:01:33;13.50;99.90
22112;DHT22;11222;50.872;4.312;2022-11-03T16:04:02;13.50;99.90
22112;DHT22;11222;50.872;4.312;2022-11-03T16:06:27;13.50;99.90
22112;DHT22;11222;50.872;4.312;2022-11-03T16:08:53;13.50;99.90
22112;DHT22;11222;50.872;4.312;2022-11-03T16:11:19;13.50;99.90
22112;DHT22;11222;50.872;4.312;2022-11-03T16:13:44;13.40;99.90
22112;DHT22;11222;50.872;4.312;2022-11-03T16:16:10;13.20;99.90
22112;DHT22;11222;50.872;4.312;2022-11-03T16:18:36;13.20;99.90
22112;DHT22;11222;50.872;4.312;2022-11-03T16:21:03;13.20;99.90
22112;DHT22;11222;50.872;4.312;2022-11-03T16:23:28;13.20;99.90
22112;DHT22;11222;50.872;4.312;2022-11-03T16:25:54;13.20;99.90
22112;DHT22;11222;50.872;4.312;2022-11-03T16:28:20;13.10;99.90
22112;DHT22;11222;50.872;4.312;2022-11-03T16:30:45;13.10;99.90
22112;DHT22;11222;50.872;4.312;2022-11-03T16:33:11;13.10;99.90
22112;DHT22;11222;50.872;4.312;2022-11-03T16:35:37;13.00;99.90
22112;DHT22;11222;50.872;4.312;2022-11-03T16:38:02;13.00;99.90
22112;DHT22;11222;50.872;4.312;2022-11-03T16:40:28;13.10;99.90
22112;DHT22;11222;50.872;4.312;2022-11-03T16:42:53;13.10;99.90
22112;DHT22;11222;50.872;4.312;2022-11-03T16:45:21;13.10;99.90
22112;DHT22;11222;50.872;4.312;2022-11-03T16:47:48;13.20;99.90
22112;DHT22;11222;50.872;4.312;2022-11-03T16:50:15;13.10;99.90
22112;DHT22;11222;50.872;4.312;2022-11-03T16:52:41;13.10;99.90
22112;DHT22;11222;50.872;4.312;2022-11-03T16:55:08;13.10;99.90